Detall de PIREP

Printer-friendly versionPDF version

[2014/08/14 16:04:00]
Flight IATA:CT3417
Pilot Number:012
Company ICAO:CAT
Aircraft Type:B463/A
PAX:0
Aircraft Registration:CARGO
Departing Airport: LATI
Destination Airport: LEBL
Alternate Airport:LEPA
Online: VATSIM
Route:DIRES/M071F280 P92 PAPIZ UP92 BRD UM603 POKAV/M071F290 UZ347 MINKA UQ182 MALAV UM601 VERSO
Flight Level:F290
No Slew and time accel
No pause
Crash detect
Detect pilot in Cockpit between each 30 and 45 minutes
16:04 Zero fuel Weight: 77002 Lbs, Fuel Weight: 20222 Lbs
16:04 VATSIM:LATI 141550Z 28004KT CAVOK 33/14 Q1009 NOSIG
16:04 VATSIM:LEBL 141530Z 19013KT 9999 FEW028 26/17 Q1016 NOSIG
16:16 Parking Brakes off
16:25 Take-off
16:25 Take off Weight: 96540 Lbs
16:25 Wind: 276º @ 004 Knots Heading: 352º
16:25 POS N41º 25´ 22´´ E019º 43´ 10´´
16:25 Gear Up: 148 Knots
16:25 Flaps:1 at 148 Knots
16:27 Flaps:0 at 204 Knots
16:40 Wind:260º@042 Knots Heading: 238º Ground Speed: 393 Knots Altitude 27870 ft
16:55 Wind:246º@059 Knots Heading: 266º Ground Speed: 386 Knots Altitude 27847 ft
17:10 Wind:247º@079 Knots Heading: 264º Ground Speed: 363 Knots Altitude 27952 ft
17:25 Wind:251º@096 Knots Heading: 262º Ground Speed: 345 Knots Altitude 27952 ft
17:40 Wind:259º@108 Knots Heading: 267º Ground Speed: 328 Knots Altitude 28051 ft
17:41 TOC
17:41 Fuel Weight: 11161 Lb
17:55 Wind:259º@109 Knots Heading: 266º Ground Speed: 325 Knots Altitude 28986 ft
18:10 Wind:268º@088 Knots Heading: 272º Ground Speed: 345 Knots Altitude 29035 ft
18:25 Wind:285º@083 Knots Heading: 279º Ground Speed: 350 Knots Altitude 29041 ft
18:32 TOD
18:32 Fuel Weight: 6278 Lb
18:40 Wind:283º@027 Knots Heading: 277º Ground Speed: 308 Knots Altitude 12647 ft
18:50 Flaps:1 at 187 Knots
18:54 Gear Down: 179 Knots
18:54 Flaps:2 at 177 Knots
18:55 Wind:199º@007 Knots Heading: 245º Ground Speed: 160 Knots Altitude 2168 ft
18:55 Flaps:3 at 154 Knots
18:55 Flaps:4 at 136 Knots
18:58 TouchDown:Rate -162 ft/min Speed: 114 Knots
18:58 VATSIM:LEBL 141830Z 20007KT 9999 FEW038 24/17 Q1017 NOSIG
18:58 Land
18:58 Wind:199º@007 Knots
18:58 Heading: 243º
18:58 Flight Duration: 02:33
18:58 Landing Weight: 81912 Lbs
18:58 POS N41º 18´ 00´´ E002º 05´ 13´´
19:02 Parking brakes on
19:02 Block to Block Duration: 02:46
19:02 Final Fuel: 4748 Lbls
19:02 Spent Fuel: 15474 Lbls
19:02 Flight Length: 845 NM
19:02 TOD Land Length: 108 NM

Exportar CSV

Powered by Drupal - Modified by Danger4k